Terminal Aerodrome Forecast
Issued by NWS Louisville, KY

Home | Current Version | Previous Version | Text Only | Print | Product List | Glossary On
Versions: 1 2 3 4 5 6 7 8 9 10 11 12 13 14 15
000
FTUS43 KLMK 251124
TAFSDF
TAF
KSDF 251124Z 2512/2618 06004KT 6SM HZ SKC
      TEMPO 2512/2514 5SM HZ
     FM251400 VRB04KT P6SM SCT060
     FM260900 17005KT P6SM BKN060
     FM261200 29011KT P6SM BKN060 PROB30 2612/2618 -SHRA BKN030=

USA.gov is the U.S. government's official web portal to all federal, state and local government web resources and services.